Time;durP1;ratioP1;P1;durP2;ratioP2;P2;SDS_P1;SDS_P2;PMS_P1;PMS_P2;Temp;Humidity;BMP_temperature;BMP_pressure;BME280_temperature;BME280_humidity;BME280_pressure;Samples;Min_cycle;Max_cycle;Signal;HPM_P1;HPM_P2
2021/12/19 06:33:32;;;;;;;17.70;10.88;;;;;;;16.28;55.63;100609.16;1921134;72;27990;-58
2021/12/19 06:36:22;;;;;;;10.58;7.53;;;;;;;15.78;47.10;100609.16;1900701;75;28094;-58
2021/12/19 06:39:11;;;;;;;6.17;4.80;;;;;;;16.43;47.94;100603.40;1894217;75;28185;-59
2021/12/19 06:41:59;;;;;;;6.20;4.62;;;;;;;17.14;48.28;100596.81;1877856;75;28083;-59
2021/12/19 06:44:49;;;;;;;6.53;4.67;;;;;;;17.72;47.60;100591.58;1881281;75;28061;-59
2021/12/19 06:47:38;;;;;;;4.78;4.37;;;;;;;18.18;46.78;100583.86;1888281;75;28148;-59
2021/12/19 06:50:28;;;;;;;4.72;4.00;;;;;;;18.57;46.11;100581.94;1894490;75;28583;-60
2021/12/19 06:53:17;;;;;;;4.83;4.40;;;;;;;18.83;45.49;100573.39;1855763;76;27997;-60
2021/12/19 06:56:05;;;;;;;5.75;4.10;;;;;;;19.13;44.98;100578.36;1881414;75;28080;-60
2021/12/19 06:58:54;;;;;;;4.58;3.92;;;;;;;19.36;44.50;100576.95;1891297;75;28137;-60
2021/12/19 07:01:42;;;;;;;5.92;3.75;;;;;;;19.52;44.12;100576.26;1872008;75;28063;-59
2021/12/19 07:04:32;;;;;;;4.08;3.72;;;;;;;19.68;43.74;100577.93;1884375;75;28146;-59
2021/12/19 07:07:21;;;;;;;4.28;3.87;;;;;;;19.81;43.45;100576.77;1869596;75;28233;-60
2021/12/19 07:10:11;;;;;;;5.47;4.10;;;;;;;19.90;43.19;100573.73;1878565;75;28044;-60
2021/12/19 07:13:00;;;;;;;6.35;4.12;;;;;;;19.96;42.96;100581.14;1879671;75;28188;-59
2021/12/19 07:15:50;;;;;;;6.58;4.40;;;;;;;20.06;42.76;100575.91;1885561;75;28082;-60
2021/12/19 07:18:39;;;;;;;5.03;4.00;;;;;;;20.11;42.49;100577.03;1869818;75;28096;-59
2021/12/19 07:21:29;;;;;;;4.15;3.72;;;;;;;20.15;42.30;100571.50;1893580;75;28016;-60
2021/12/19 07:24:17;;;;;;;4.70;3.95;;;;;;;20.18;42.13;100577.95;1876832;75;28132;-60
2021/12/19 07:27:07;;;;;;;4.37;3.80;;;;;;;20.23;41.98;100576.89;1878351;75;29043;-60
2021/12/19 07:29:57;;;;;;;5.22;3.87;;;;;;;20.25;41.84;100581.62;1887210;75;28118;-59
2021/12/19 07:33:09;;;;;;;3.80;3.40;;;;;;;20.31;41.70;100579.48;1886203;74;28284;-60
2021/12/19 07:36:00;;;;;;;4.10;3.80;;;;;;;20.30;41.77;100576.95;1885411;74;28056;-60
2021/12/19 07:38:51;;;;;;;4.83;3.72;;;;;;;20.31;41.75;100565.84;1890359;74;28261;-61
2021/12/19 07:41:38;;;;;;;4.37;3.90;;;;;;;20.33;41.71;100571.94;1885213;74;28113;-62
2021/12/19 07:44:28;;;;;;;4.58;3.83;;;;;;;20.32;41.71;100567.54;1900583;74;28096;-64
2021/12/19 07:47:17;;;;;;;5.60;3.80;;;;;;;20.37;41.67;100576.00;1880684;74;28100;-62
2021/12/19 07:50:07;;;;;;;3.92;3.50;;;;;;;20.39;41.62;100582.61;1896396;75;28468;-62
2021/12/19 07:52:56;;;;;;;9.00;3.67;;;;;;;20.40;41.60;100581.05;1883830;74;28066;-62
2021/12/19 07:55:45;;;;;;;4.10;3.70;;;;;;;20.45;41.58;100573.64;1907635;74;28177;-62
2021/12/19 07:58:33;;;;;;;4.47;3.92;;;;;;;20.41;41.58;100581.38;1906863;74;28078;-61
2021/12/19 08:01:22;;;;;;;4.58;3.33;;;;;;;20.42;41.54;100582.23;1882072;74;28128;-62
2021/12/19 08:04:10;;;;;;;3.85;3.47;;;;;;;20.43;41.59;100582.03;1888385;74;28229;-62
2021/12/19 08:06:58;;;;;;;3.85;3.55;;;;;;;20.45;41.54;100573.64;1900991;74;28039;-62
2021/12/19 08:12:49;;;;;;;4.30;3.80;;;;;;;20.44;41.56;100567.33;1879182;74;28267;-62
2021/12/19 08:15:38;;;;;;;3.98;3.67;;;;;;;20.43;41.55;100573.84;1881910;74;28133;-63
2021/12/19 08:18:26;;;;;;;3.98;3.58;;;;;;;20.42;41.62;100570.77;1902032;74;28583;-62
2021/12/19 08:21:15;;;;;;;4.43;3.50;;;;;;;20.43;41.61;100559.34;1886073;74;28227;-61
2021/12/19 08:24:09;;;;;;;4.55;3.55;;;;;;;20.44;41.59;100557.77;1897017;74;28121;-62
2021/12/19 08:26:53;;;;;;;3.80;3.50;;;;;;;20.45;41.55;100555.38;1899713;74;28086;-64
2021/12/19 08:29:42;;;;;;;4.13;3.60;;;;;;;20.44;41.63;100547.41;1900817;74;28187;-64
2021/12/19 08:32:30;;;;;;;3.60;3.30;;;;;;;20.44;41.65;100546.04;1882210;74;28180;-64
2021/12/19 08:35:19;;;;;;;3.70;3.40;;;;;;;20.46;41.56;100551.63;1872897;75;28185;-62
2021/12/19 08:38:07;;;;;;;3.70;3.40;;;;;;;20.44;41.60;100548.22;1869050;75;28166;-62
2021/12/19 08:40:56;;;;;;;4.35;3.67;;;;;;;20.42;41.59;100543.48;1870672;75;28195;-62
2021/12/19 08:43:44;;;;;;;4.90;3.50;;;;;;;20.42;41.65;100550.30;1869434;75;28238;-63
2021/12/19 08:46:35;;;;;;;4.03;3.73;;;;;;;20.42;41.59;100544.84;1876741;75;28576;-62
2021/12/19 08:49:23;;;;;;;4.17;3.52;;;;;;;20.44;41.61;100549.59;1876061;75;28066;-62
2021/12/19 08:52:12;;;;;;;3.60;3.10;;;;;;;20.44;41.59;100545.49;1873241;75;28098;-62
2021/12/19 08:55:00;;;;;;;3.70;3.40;;;;;;;20.43;41.58;100539.73;1870794;75;28246;-62
2021/12/19 08:57:48;;;;;;;3.90;3.35;;;;;;;20.44;41.63;100533.76;1863456;75;28188;-62
2021/12/19 09:00:38;;;;;;;4.20;3.80;;;;;;;20.44;41.62;100537.85;1879280;75;28223;-62
2021/12/19 09:03:26;;;;;;;3.87;3.42;;;;;;;20.47;41.56;100531.47;1855748;75;28062;-64
2021/12/19 09:06:15;;;;;;;3.87;3.50;;;;;;;20.45;41.55;100533.55;1886451;75;28182;-62
2021/12/19 09:09:07;;;;;;;4.40;3.60;;;;;;;20.44;41.61;100528.30;1877608;75;28227;-62
2021/12/19 09:11:56;;;;;;;4.03;3.62;;;;;;;20.43;41.57;100527.45;1877794;75;28126;-62
2021/12/19 09:14:45;;;;;;;3.70;3.40;;;;;;;20.43;41.59;100522.50;1872163;75;28164;-62
2021/12/19 09:17:33;;;;;;;5.08;3.70;;;;;;;20.41;41.60;100521.34;1880278;75;28106;-62
2021/12/19 09:20:40;;;;;;;4.10;3.33;;;;;;;20.42;41.58;100517.56;1874308;75;28620;-62
2021/12/19 09:23:30;;;;;;;3.98;3.67;;;;;;;20.40;41.64;100516.91;1866386;75;28181;-63
2021/12/19 09:26:19;;;;;;;4.20;3.55;;;;;;;20.39;41.60;100517.97;1891930;75;28400;-61
2021/12/19 09:29:09;;;;;;;3.77;3.35;;;;;;;20.42;41.62;100514.01;1868915;76;28136;-62
2021/12/19 09:31:59;;;;;;;3.60;3.30;;;;;;;20.42;41.62;100509.92;1879971;75;28157;-62
2021/12/19 09:34:49;;;;;;;4.72;3.50;;;;;;;20.43;41.57;100515.69;1878012;74;28165;-62
2021/12/19 09:37:38;;;;;;;3.70;3.40;;;;;;;20.42;41.61;100509.38;1881845;74;28226;-62
2021/12/19 09:40:33;;;;;;;3.87;3.52;;;;;;;20.43;41.58;100507.49;1891113;74;28286;-62
2021/12/19 09:46:28;;;;;;;3.58;3.30;;;;;;;20.43;41.60;100500.67;1897070;74;28314;-64
2021/12/19 09:49:16;;;;;;;3.65;3.30;;;;;;;20.41;41.60;100502.24;1894372;74;28197;-62
2021/12/19 09:52:09;;;;;;;3.87;3.50;;;;;;;20.46;41.56;100498.92;1900192;74;28142;-62
2021/12/19 09:54:58;;;;;;;3.55;3.30;;;;;;;20.45;41.47;100493.98;1882248;74;28116;-62
2021/12/19 09:57:47;;;;;;;3.90;3.50;;;;;;;20.40;41.54;100490.14;1878622;74;28660;-62
2021/12/19 10:00:36;;;;;;;3.60;3.30;;;;;;;20.41;41.59;100491.33;1900588;74;28168;-63
2021/12/19 10:03:24;;;;;;;3.80;3.50;;;;;;;20.44;41.60;100486.81;1883666;74;28176;-62
2021/12/19 10:06:24;;;;;;;3.50;3.20;;;;;;;20.43;41.61;100485.66;1898237;74;28170;-61
2021/12/19 10:09:19;;;;;;;3.60;3.30;;;;;;;20.44;41.61;100485.45;1895006;74;28226;-62
2021/12/19 10:15:39;;;;;;;3.72;3.40;;;;;;;20.39;41.66;100471.58;1899366;74;28160;-62
2021/12/19 10:18:25;;;;;;;3.87;3.58;;;;;;;20.38;41.67;100475.34;1901752;74;28199;-62
2021/12/19 10:21:17;;;;;;;3.70;3.30;;;;;;;20.37;41.66;100468.72;1885162;74;28183;-62
2021/12/19 10:24:06;;;;;;;3.70;3.40;;;;;;;20.39;41.70;100471.58;1881242;74;28191;-62
2021/12/19 10:26:55;;;;;;;4.17;3.77;;;;;;;20.44;41.45;100471.81;1889482;74;28150;-63
2021/12/19 10:29:46;;;;;;;5.07;4.10;;;;;;;20.44;41.10;100464.17;1906570;74;28156;-62
2021/12/19 10:32:36;;;;;;;4.50;4.10;;;;;;;20.41;40.73;100461.82;1878397;74;28196;-63
2021/12/19 10:35:31;;;;;;;5.08;4.50;;;;;;;20.40;40.38;100456.88;1875532;75;28130;-62
2021/12/19 10:38:22;;;;;;;5.90;4.80;;;;;;;20.38;39.89;100443.11;1865634;75;28112;-62
2021/12/19 10:41:35;;;;;;;5.30;4.72;;;;;;;20.36;39.54;100436.49;1860502;75;28226;-63
2021/12/19 10:47:38;;;;;;;5.05;4.30;;;;;;;20.33;38.95;100429.20;1878487;75;28514;-64
2021/12/19 10:50:29;;;;;;;4.85;4.40;;;;;;;20.32;38.85;100418.84;1893111;75;28045;-63
2021/12/19 10:53:19;;;;;;;4.90;4.47;;;;;;;20.37;38.65;100414.15;1877682;75;28022;-62
2021/12/19 10:56:16;;;;;;;5.05;4.37;;;;;;;20.32;38.63;100413.89;1864951;75;28119;-62
2021/12/19 10:59:11;;;;;;;4.95;4.45;;;;;;;20.33;38.61;100404.65;1885228;75;28050;-62
2021/12/19 11:01:59;;;;;;;6.15;4.60;;;;;;;20.32;38.61;100390.70;1880958;75;28506;-61
2021/12/19 11:04:47;;;;;;;4.53;3.83;;;;;;;20.32;38.66;100394.28;1889251;75;28478;-62
2021/12/19 11:07:36;;;;;;;4.72;4.10;;;;;;;20.34;38.67;100392.70;1879223;75;28157;-61
2021/12/19 11:10:30;;;;;;;5.42;3.98;;;;;;;20.31;38.77;100380.30;1857187;77;28129;-64
2021/12/19 11:13:18;;;;;;;4.37;3.98;;;;;;;20.37;38.79;100385.50;1869116;75;28030;-63
2021/12/19 11:16:07;;;;;;;5.65;4.28;;;;;;;20.37;38.83;100381.41;1879774;75;28117;-63
2021/12/19 11:19:14;;;;;;;4.40;4.00;;;;;;;20.36;38.89;100379.70;1865077;75;28064;-62
2021/12/19 11:22:03;;;;;;;4.17;3.80;;;;;;;20.32;38.98;100380.64;1857156;77;28165;-61
2021/12/19 11:24:58;;;;;;;3.90;3.60;;;;;;;20.33;38.99;100378.22;1868895;76;28234;-62
2021/12/19 11:27:47;;;;;;;4.43;3.70;;;;;;;20.34;39.07;100377.70;1878598;75;28649;-62
2021/12/19 11:30:38;;;;;;;4.08;3.62;;;;;;;20.31;39.07;100373.99;1890957;75;28122;-63
2021/12/19 11:33:38;;;;;;;4.22;3.83;;;;;;;20.29;39.17;100365.17;1890083;75;28201;-62
2021/12/19 11:36:30;;;;;;;4.08;3.72;;;;;;;20.30;39.27;100360.90;1874851;74;28065;-62
2021/12/19 11:39:18;;;;;;;4.30;3.77;;;;;;;20.31;39.26;100363.08;1881243;75;28106;-61
2021/12/19 11:42:10;;;;;;;3.80;3.50;;;;;;;20.30;39.27;100355.44;1868088;75;28095;-62
2021/12/19 11:48:05;;;;;;;3.70;3.40;;;;;;;20.29;39.37;100345.55;1881037;75;28242;-63
2021/12/19 11:50:50;;;;;;;3.70;3.40;;;;;;;20.32;39.40;100342.44;1882222;75;28048;-62
2021/12/19 11:53:43;;;;;;;3.87;3.15;;;;;;;20.29;39.41;100342.83;1893475;75;28191;-62
2021/12/19 11:56:30;;;;;;;3.62;3.33;;;;;;;20.29;39.44;100337.89;1878812;75;28133;-61
2021/12/19 11:59:20;;;;;;;3.58;3.27;;;;;;;20.29;39.49;100330.55;1882643;75;28272;-61
2021/12/19 12:02:26;;;;;;;3.55;3.22;;;;;;;20.27;39.48;100328.55;1835071;77;28243;-63
2021/12/19 12:05:17;;;;;;;3.52;3.27;;;;;;;20.29;39.57;100324.25;1818811;77;28227;-61
2021/12/19 12:08:10;;;;;;;3.47;3.20;;;;;;;20.25;39.62;100317.51;1868973;75;28179;-62
2021/12/19 12:11:02;;;;;;;3.70;3.40;;;;;;;20.28;39.64;100309.75;1880033;75;28182;-61
2021/12/19 12:13:52;;;;;;;3.70;3.37;;;;;;;20.28;39.66;100304.30;1876375;75;28142;-63
2021/12/19 12:16:52;;;;;;;3.92;3.33;;;;;;;20.28;39.73;100296.66;1834772;77;28224;-61
2021/12/19 12:19:48;;;;;;;3.47;3.17;;;;;;;20.23;39.77;100287.71;1831393;77;28348;-62
2021/12/19 12:22:44;;;;;;;3.67;3.37;;;;;;;20.25;39.81;100287.50;1823291;77;28126;-62
2021/12/19 12:25:34;;;;;;;3.83;3.52;;;;;;;20.26;39.80;100282.34;1790148;79;28390;-61
2021/12/19 12:28:23;;;;;;;3.22;2.92;;;;;;;20.28;39.92;100275.65;1794270;79;28409;-61
2021/12/19 12:31:15;;;;;;;3.45;3.15;;;;;;;20.27;39.84;100271.25;1831748;77;31233;-62
2021/12/19 12:34:06;;;;;;;3.47;3.17;;;;;;;20.30;39.89;100268.65;1858764;76;28249;-63
2021/12/19 12:36:54;;;;;;;3.50;3.20;;;;;;;20.29;39.92;100265.59;1858614;76;28180;-62
2021/12/19 12:39:42;;;;;;;3.75;3.40;;;;;;;20.27;39.88;100254.89;1853839;76;28220;-61
2021/12/19 12:42:32;;;;;;;3.60;3.30;;;;;;;20.25;39.98;100255.61;1849590;76;28133;-61
2021/12/19 12:45:21;;;;;;;3.87;3.30;;;;;;;20.27;39.98;100254.03;1848433;76;28203;-62
2021/12/19 12:48:10;;;;;;;3.43;3.13;;;;;;;20.27;39.98;100249.43;1868526;76;28198;-62
2021/12/19 12:51:00;;;;;;;3.15;2.95;;;;;;;20.29;39.99;100243.77;1853777;76;28164;-60
2021/12/19 12:53:52;;;;;;;3.20;2.90;;;;;;;20.28;40.08;100235.28;1848772;76;28209;-62
2021/12/19 12:56:46;;;;;;;3.27;3.05;;;;;;;20.27;40.06;100229.48;1863183;76;28258;-62
2021/12/19 12:59:38;;;;;;;3.27;3.00;;;;;;;20.28;40.09;100224.36;1847060;77;28131;-61
2021/12/19 13:02:40;;;;;;;3.42;3.02;;;;;;;20.28;40.07;100218.36;1857698;76;28158;-63
2021/12/19 13:05:18;;;;;;;3.30;3.00;;;;;;;20.24;40.16;100210.27;1844118;77;28297;-62
2021/12/19 13:08:06;;;;;;;3.67;2.93;;;;;;;20.29;40.12;100211.02;1859911;76;28098;-62
2021/12/19 13:10:55;;;;;;;2.92;2.72;;;;;;;20.32;40.08;100203.80;1836373;77;28238;-62
2021/12/19 13:13:44;;;;;;;2.90;2.70;;;;;;;20.33;40.11;100190.47;1841638;77;28199;-62
2021/12/19 13:16:37;;;;;;;3.40;3.10;;;;;;;20.28;40.16;100191.62;1848474;76;28123;-62
2021/12/19 13:19:40;;;;;;;3.10;2.80;;;;;;;20.27;40.21;100181.23;1848150;76;28119;-62
2021/12/19 13:22:48;;;;;;;3.12;2.83;;;;;;;20.26;40.24;100181.41;1848036;76;28255;-62
2021/12/19 13:25:42;;;;;;;3.45;3.15;;;;;;;20.23;40.26;100175.87;1846382;76;28206;-62
2021/12/19 13:28:29;;;;;;;3.05;2.80;;;;;;;20.24;40.31;100169.34;1835940;77;28262;-62
2021/12/19 13:31:23;;;;;;;3.15;2.72;;;;;;;20.28;40.33;100169.80;1837024;77;28121;-62
2021/12/19 13:34:14;;;;;;;3.00;2.80;;;;;;;20.27;40.33;100164.86;1847088;77;28234;-62
2021/12/19 13:37:04;;;;;;;2.95;2.62;;;;;;;20.26;40.35;100157.70;1847029;77;28155;-62
2021/12/19 13:40:11;;;;;;;3.00;2.80;;;;;;;20.23;40.35;100162.74;1860169;75;28243;-62
2021/12/19 13:43:08;;;;;;;3.17;2.80;;;;;;;20.21;40.44;100160.16;1862674;76;28124;-61
2021/12/19 13:46:12;;;;;;;3.23;3.03;;;;;;;20.24;40.50;100166.62;1860070;76;28204;-63
2021/12/19 13:49:01;;;;;;;2.98;2.77;;;;;;;20.26;40.50;100159.59;1856440;76;28224;-61
2021/12/19 13:51:50;;;;;;;3.72;3.00;;;;;;;20.23;40.57;100158.13;1858900;76;28113;-61
2021/12/19 13:54:40;;;;;;;3.10;2.80;;;;;;;20.25;40.54;100148.38;1870180;76;28199;-62
2021/12/19 13:57:29;;;;;;;3.00;2.80;;;;;;;20.30;40.51;100148.09;1863431;76;28195;-62
2021/12/19 14:00:29;;;;;;;3.03;2.73;;;;;;;20.31;40.60;100142.09;1872959;76;28162;-61
2021/12/19 14:03:19;;;;;;;3.77;2.95;;;;;;;20.28;40.64;100145.25;1869437;76;28672;-62
2021/12/19 14:06:08;;;;;;;3.00;2.70;;;;;;;20.26;40.69;100138.61;1868303;76;28200;-62
2021/12/19 14:09:00;;;;;;;2.90;2.70;;;;;;;20.25;40.80;100132.85;1863554;76;28189;-62
2021/12/19 14:11:56;;;;;;;3.20;2.95;;;;;;;20.24;40.88;100135.77;1861075;76;28262;-62
2021/12/19 14:14:42;;;;;;;2.90;2.60;;;;;;;20.30;40.79;100131.72;1849128;76;28213;-61
2021/12/19 14:17:31;;;;;;;3.05;2.85;;;;;;;20.30;40.77;100134.45;1846587;76;28193;-61
2021/12/19 14:20:22;;;;;;;2.92;2.72;;;;;;;20.31;40.81;100139.36;1860016;76;28206;-61
2021/12/19 14:23:19;;;;;;;3.10;2.90;;;;;;;20.31;40.87;100140.20;1878515;76;28186;-61
2021/12/19 14:26:11;;;;;;;3.00;2.80;;;;;;;20.30;40.83;100141.79;1857072;76;28147;-62
2021/12/19 14:29:00;;;;;;;3.27;2.90;;;;;;;20.30;40.83;100137.18;1852551;76;32185;-61
2021/12/19 14:32:00;;;;;;;2.83;2.62;;;;;;;20.30;40.88;100134.45;1831465;77;28686;-62
2021/12/19 14:35:00;;;;;;;4.28;2.80;;;;;;;20.32;40.80;100131.51;1799866;78;28311;-60
2021/12/19 14:37:51;;;;;;;2.92;2.72;;;;;;;20.30;40.85;100127.63;1808072;78;28389;-62
2021/12/19 14:40:42;;;;;;;2.92;2.70;;;;;;;20.30;40.88;100127.63;1791212;78;29474;-61
2021/12/19 14:43:33;;;;;;;3.00;2.80;;;;;;;20.25;40.88;100126.55;1840050;76;28313;-61
2021/12/19 14:46:29;;;;;;;3.22;2.92;;;;;;;20.25;40.94;100123.30;1836761;77;28319;-62
2021/12/19 14:49:17;;;;;;;2.87;2.67;;;;;;;20.24;40.91;100122.97;1854030;76;28153;-62
2021/12/19 14:52:06;;;;;;;2.52;2.40;;;;;;;20.27;40.91;100115.75;1873267;76;28172;-62
2021/12/19 14:55:01;;;;;;;2.92;2.72;;;;;;;20.26;40.96;100114.05;1848482;76;28113;-61
2021/12/19 14:57:49;;;;;;;3.08;2.87;;;;;;;20.27;40.87;100111.66;1844668;76;28320;-61
2021/12/19 15:00:40;;;;;;;2.90;2.70;;;;;;;20.29;40.85;100106.84;1854171;75;28204;-61
2021/12/19 15:03:31;;;;;;;3.10;2.90;;;;;;;20.28;40.88;100106.50;1849535;75;28172;-61
2021/12/19 15:06:22;;;;;;;2.67;2.47;;;;;;;20.26;40.90;100108.60;1843968;76;28312;-61
2021/12/19 15:09:13;;;;;;;2.80;2.60;;;;;;;20.27;40.94;100098.54;1851580;76;28185;-61
2021/12/19 15:12:02;;;;;;;2.80;2.60;;;;;;;20.29;40.91;100104.63;1839701;76;28175;-61
2021/12/19 15:14:51;;;;;;;3.17;2.70;;;;;;;20.30;40.85;100101.71;1861362;76;28160;-61
2021/12/19 15:17:39;;;;;;;2.60;2.40;;;;;;;20.27;40.89;100093.93;1848942;75;28250;-62
2021/12/19 15:20:28;;;;;;;2.60;2.45;;;;;;;20.30;40.83;100096.77;1856855;76;28206;-61
2021/12/19 15:23:17;;;;;;;3.02;2.70;;;;;;;20.28;40.96;100102.41;1851261;76;28201;-62
2021/12/19 15:26:11;;;;;;;3.02;2.83;;;;;;;20.28;40.90;100097.51;1840697;76;31260;-62
2021/12/19 15:28:56;;;;;;;2.73;2.53;;;;;;;20.27;40.92;100098.54;1858936;76;28496;-61
2021/12/19 15:31:45;;;;;;;2.50;2.30;;;;;;;20.27;40.94;100101.27;1855710;76;28592;-61
2021/12/19 15:34:33;;;;;;;2.70;2.50;;;;;;;20.27;40.93;100102.63;1849656;76;28109;-62
2021/12/19 15:37:21;;;;;;;2.92;2.72;;;;;;;20.27;40.91;100098.54;1848481;76;28193;-61
2021/12/19 15:40:11;;;;;;;2.75;2.50;;;;;;;20.26;40.92;100104.51;1862153;76;28201;-62
2021/12/19 15:43:01;;;;;;;2.85;2.65;;;;;;;20.25;41.00;100102.00;1829663;78;28215;-62
2021/12/19 15:45:50;;;;;;;2.98;2.77;;;;;;;20.27;40.94;100101.27;1849016;76;28153;-62
2021/12/19 15:48:39;;;;;;;2.60;2.40;;;;;;;20.27;40.92;100095.30;1844498;76;28306;-61
2021/12/19 15:51:27;;;;;;;2.80;2.60;;;;;;;20.26;40.92;100098.20;1830941;77;28156;-61
2021/12/19 15:54:16;;;;;;;2.83;2.60;;;;;;;20.28;40.91;100094.78;1867946;76;28109;-62
2021/12/19 15:57:05;;;;;;;2.70;2.50;;;;;;;20.29;40.85;100100.02;1848810;76;28238;-61
2021/12/19 15:59:54;;;;;;;2.40;2.30;;;;;;;20.27;40.91;100084.37;1869012;76;28153;-61
2021/12/19 16:02:42;;;;;;;2.60;2.50;;;;;;;20.27;40.92;100084.37;1860295;76;28164;-61
2021/12/19 16:05:30;;;;;;;2.55;2.35;;;;;;;20.27;40.92;100083.02;1837968;77;28232;-61
2021/12/19 16:08:20;;;;;;;2.80;2.60;;;;;;;20.24;40.91;100073.88;1898529;75;28679;-61
2021/12/19 16:11:08;;;;;;;2.50;2.40;;;;;;;20.24;40.94;100073.88;1870820;75;28294;-61
2021/12/19 16:13:56;;;;;;;2.50;2.40;;;;;;;20.22;40.99;100077.84;1850407;76;28195;-61
2021/12/19 16:16:45;;;;;;;2.50;2.40;;;;;;;20.26;40.91;100072.29;1850891;76;28119;-61
2021/12/19 16:19:34;;;;;;;2.40;2.20;;;;;;;20.24;40.87;100079.33;1848032;76;28146;-61
2021/12/19 16:22:26;;;;;;;2.52;2.33;;;;;;;20.23;40.92;100072.20;1845817;76;28247;-62
2021/12/19 16:25:14;;;;;;;2.50;2.30;;;;;;;20.22;40.95;100069.14;1838586;76;28226;-63
2021/12/19 16:28:04;;;;;;;2.60;2.40;;;;;;;20.21;40.98;100063.33;1848255;76;28984;-63
2021/12/19 16:30:53;;;;;;;2.60;2.40;;;;;;;20.21;40.92;100064.69;1858271;76;28126;-62
2021/12/19 16:33:41;;;;;;;2.22;2.12;;;;;;;20.21;40.98;100064.69;1858658;76;28117;-62
2021/12/19 16:36:30;;;;;;;2.70;2.20;;;;;;;20.20;40.96;100064.39;1835018;76;28303;-62
2021/12/19 16:39:20;;;;;;;2.40;2.30;;;;;;;20.21;40.97;100061.14;1858230;76;31566;-62
2021/12/19 16:43:29;;;;;;;2.50;2.40;;;;;;;20.22;40.94;100060.11;1851535;76;28223;-61
2021/12/19 16:45:00;;;;;;;2.40;2.30;;;;;;;20.19;40.96;100061.33;1843149;76;28265;-61
2021/12/19 16:47:48;;;;;;;2.60;2.40;;;;;;;20.18;40.96;100064.27;1826251;77;28219;-61
2021/12/19 16:50:37;;;;;;;2.37;2.27;;;;;;;20.19;40.98;100059.97;1846089;76;28275;-61
2021/12/19 16:53:25;;;;;;;2.10;2.00;;;;;;;20.19;40.96;100055.03;1847203;77;28349;-61
2021/12/19 16:56:14;;;;;;;2.37;2.27;;;;;;;20.17;41.02;100057.97;1861425;74;28270;-61
2021/12/19 16:59:03;;;;;;;2.85;2.52;;;;;;;20.16;40.99;100056.83;1866738;75;28195;-61
2021/12/19 17:01:52;;;;;;;2.40;2.20;;;;;;;20.17;40.97;100059.34;1847470;76;28237;-61
2021/12/19 17:04:41;;;;;;;2.67;2.30;;;;;;;20.20;40.97;100064.39;1853358;75;28201;-68
2021/12/19 17:07:29;;;;;;;2.40;2.20;;;;;;;20.19;41.01;100056.39;1868600;75;28181;-66
2021/12/19 17:10:17;;;;;;;2.50;2.40;;;;;;;20.17;41.08;100057.13;1851657;76;28185;-68
2021/12/19 17:13:14;;;;;;;2.20;2.10;;;;;;;20.21;41.04;100060.59;1846758;76;28233;-61
2021/12/19 17:15:58;;;;;;;2.20;2.10;;;;;;;20.25;41.00;100056.98;1848682;76;28169;-62
2021/12/19 17:18:48;;;;;;;2.40;2.20;;;;;;;20.25;40.96;100053.74;1851707;76;28302;-62
2021/12/19 17:21:39;;;;;;;2.50;2.30;;;;;;;20.23;41.02;100048.17;1848682;76;28220;-61
2021/12/19 17:24:27;;;;;;;2.33;2.20;;;;;;;20.17;41.04;100041.61;1858759;75;28311;-71
2021/12/19 17:27:15;;;;;;;2.30;2.10;;;;;;;20.20;41.07;100048.54;1848449;76;28249;-60
2021/12/19 17:30:06;;;;;;;2.42;2.33;;;;;;;20.26;41.03;100045.01;1851786;76;28285;-63
2021/12/19 17:32:54;;;;;;;2.20;2.05;;;;;;;20.24;40.96;100049.31;1857488;75;28173;-60
2021/12/19 17:35:43;;;;;;;2.30;2.20;;;;;;;20.26;40.97;100051.31;1849302;75;28141;-59
2021/12/19 17:38:33;;;;;;;2.45;2.25;;;;;;;20.24;40.93;100049.31;1861961;75;28483;-62
2021/12/19 17:41:23;;;;;;;2.87;2.30;;;;;;;20.23;41.00;100050.90;1842538;77;28142;-64
2021/12/19 17:44:12;;;;;;;2.60;2.40;;;;;;;20.23;41.05;100049.02;1858839;76;29130;-62
2021/12/19 17:47:00;;;;;;;2.58;2.42;;;;;;;20.26;40.97;100047.22;1784054;79;28287;-62
2021/12/19 17:49:49;;;;;;;2.52;2.37;;;;;;;20.26;40.93;100048.58;1856144;75;28284;-61
2021/12/19 17:52:37;;;;;;;2.17;2.08;;;;;;;20.22;40.90;100046.48;1867935;76;30210;-62
2021/12/19 17:55:26;;;;;;;2.55;2.35;;;;;;;20.22;40.98;100048.69;1868662;76;28186;-62
2021/12/19 17:58:16;;;;;;;2.30;2.20;;;;;;;20.18;40.95;100040.58;1848954;76;28249;-64
2021/12/19 18:01:07;;;;;;;2.40;2.30;;;;;;;20.23;40.95;100048.17;1837734;77;29099;-62
2021/12/19 18:04:00;;;;;;;3.55;3.25;;;;;;;20.24;40.94;100038.92;1847799;76;28262;-61
2021/12/19 18:06:53;;;;;;;2.65;2.45;;;;;;;20.09;40.57;100037.72;1866972;76;28224;-63
2021/12/19 18:09:39;;;;;;;2.80;2.60;;;;;;;20.11;40.62;100035.62;1858315;76;28281;-62
2021/12/19 18:12:28;;;;;;;3.00;2.80;;;;;;;20.13;40.57;100031.31;1870787;75;28164;-63
2021/12/19 18:15:19;;;;;;;2.85;2.58;;;;;;;20.15;40.59;100042.34;1869049;75;28124;-62
2021/12/19 18:18:08;;;;;;;2.83;2.62;;;;;;;20.17;40.46;100038.03;1848262;76;28281;-63
2021/12/19 18:20:57;;;;;;;3.12;2.70;;;;;;;20.20;40.38;100034.90;1869009;76;28176;-62
2021/12/19 18:23:47;;;;;;;4.37;2.85;;;;;;;20.19;40.40;100033.20;1865135;76;28168;-62
2021/12/19 18:26:38;;;;;;;3.30;2.83;;;;;;;20.20;40.34;100043.93;1848290;76;28163;-63
2021/12/19 18:29:33;;;;;;;3.20;2.90;;;;;;;20.22;40.28;100038.29;1848089;76;28204;-62
2021/12/19 18:32:16;;;;;;;2.42;2.22;;;;;;;20.22;40.29;100038.29;1868094;76;28150;-62
2021/12/19 18:35:07;;;;;;;2.75;2.55;;;;;;;20.22;40.22;100039.14;1868793;76;28179;-62
2021/12/19 18:37:59;;;;;;;2.70;2.50;;;;;;;20.22;40.23;100037.77;1857768;76;28256;-61
2021/12/19 18:40:49;;;;;;;2.87;2.67;;;;;;;20.26;40.21;100044.49;1858628;76;28200;-63
2021/12/19 18:43:42;;;;;;;3.08;2.85;;;;;;;20.25;40.23;100037.89;1859269;76;28232;-62
2021/12/19 18:46:43;;;;;;;2.98;2.52;;;;;;;20.24;40.17;100043.86;1866328;76;28163;-63
2021/12/19 18:49:30;;;;;;;2.60;2.43;;;;;;;20.25;40.20;100040.10;1864088;76;28202;-63
2021/12/19 18:52:23;;;;;;;3.85;2.65;;;;;;;20.21;40.28;100042.87;1877810;76;28177;-62
2021/12/19 18:58:20;;;;;;;2.70;2.50;;;;;;;20.22;40.35;100048.69;1870173;76;28584;-63
2021/12/19 19:01:04;;;;;;;2.80;2.50;;;;;;;20.23;40.38;100042.72;1869053;76;28145;-63
2021/12/19 19:04:05;;;;;;;2.80;2.60;;;;;;;20.22;40.39;100046.48;1860905;76;28112;-62
2021/12/19 19:06:46;;;;;;;2.72;2.52;;;;;;;20.23;40.40;100044.92;1871442;76;28144;-63
2021/12/19 19:09:37;;;;;;;2.83;2.62;;;;;;;20.23;40.37;100042.20;1878833;76;28434;-63
2021/12/19 19:12:25;;;;;;;3.10;2.72;;;;;;;20.22;40.43;100039.14;1861584;76;28159;-62
2021/12/19 19:15:17;;;;;;;3.00;2.50;;;;;;;20.19;40.47;100034.05;1874131;76;28171;-62
2021/12/19 19:18:04;;;;;;;2.80;2.60;;;;;;;20.22;40.50;100032.84;1867179;75;28239;-63
2021/12/19 19:20:52;;;;;;;3.37;2.55;;;;;;;20.26;40.47;100036.31;1837390;77;28641;-64
2021/12/19 19:23:41;;;;;;;2.58;2.42;;;;;;;20.23;40.42;100031.80;1804677;78;28440;-65
2021/12/19 19:26:30;;;;;;;2.87;2.67;;;;;;;20.26;40.47;100029.48;1795745;78;28393;-62
2021/12/19 19:29:20;;;;;;;2.85;2.60;;;;;;;20.26;40.52;100024.55;1806690;78;28458;-62
2021/12/19 19:32:09;;;;;;;2.70;2.50;;;;;;;20.20;40.54;100024.84;1819533;78;28320;-63
2021/12/19 19:34:58;;;;;;;2.67;2.47;;;;;;;20.24;40.53;100028.02;1827419;78;28362;-64
2021/12/19 19:37:53;;;;;;;3.08;2.77;;;;;;;20.27;40.60;100030.34;1814163;78;28355;-63
2021/12/19 19:44:02;;;;;;;2.98;2.67;;;;;;;20.29;40.59;100031.81;1809723;78;28350;-62
2021/12/19 19:49:37;;;;;;;2.60;2.40;;;;;;;20.28;40.61;100025.21;1807192;78;28309;-62
2021/12/19 19:52:27;;;;;;;2.70;2.50;;;;;;;20.25;40.66;100027.83;1805172;78;28360;-65
2021/12/19 19:55:15;;;;;;;2.50;2.30;;;;;;;20.24;40.64;100020.67;1819529;78;28814;-65
2021/12/19 19:58:05;;;;;;;2.95;2.58;;;;;;;20.27;40.68;100014.81;1818887;78;28323;-64
2021/12/19 20:00:53;;;;;;;2.60;2.40;;;;;;;20.27;40.67;100018.91;1856930;76;28219;-64
2021/12/19 20:03:42;;;;;;;2.60;2.40;;;;;;;20.27;40.74;100014.81;1868539;76;28170;-63
2021/12/19 20:06:32;;;;;;;2.70;2.45;;;;;;;20.27;40.73;100010.72;1867166;76;28263;-64
2021/12/19 20:09:23;;;;;;;2.90;2.70;;;;;;;20.26;40.71;100010.39;1867456;76;28121;-64